Time;durP1;ratioP1;P1;durP2;ratioP2;P2;SDS_P1;SDS_P2;PMS_P1;PMS_P2;Temp;Humidity;BMP_temperature;BMP_pressure;BME280_temperature;BME280_humidity;BME280_pressure;Samples;Min_cycle;Max_cycle;Signal;HPM_P1;HPM_P2
2022/01/15 00:01:45;;;;;;;3.80;3.30;;;;;;;7.48;92.60;99424.53;5111433;28;20724;-62
2022/01/15 00:04:12;;;;;;;5.37;3.50;;;;;;;7.51;93.28;99419.31;5111277;28;20200;-54
2022/01/15 00:06:39;;;;;;;4.03;3.00;;;;;;;7.43;93.98;99427.22;5111291;28;20285;-55
2022/01/15 00:09:07;;;;;;;4.33;3.40;;;;;;;7.40;94.86;99422.09;5111127;28;20199;-61
2022/01/15 00:11:35;;;;;;;3.50;3.20;;;;;;;7.40;93.91;99432.44;5111116;28;20282;-61
2022/01/15 00:14:12;;;;;;;3.40;3.10;;;;;;;7.21;94.41;99400.06;5110680;28;20203;-62
2022/01/15 00:16:49;;;;;;;3.50;3.20;;;;;;;7.46;94.27;99431.47;5111157;28;20251;-62
2022/01/15 00:19:18;;;;;;;8.07;3.43;;;;;;;7.39;94.63;99429.88;5111348;28;20576;-61
2022/01/15 00:21:47;;;;;;;3.80;3.20;;;;;;;7.41;94.00;99435.88;5111234;28;20276;-61
2022/01/15 00:24:15;;;;;;;3.80;3.50;;;;;;;7.43;95.15;99450.47;5111015;28;20229;-62
2022/01/15 00:26:42;;;;;;;5.17;3.37;;;;;;;7.50;94.42;99459.78;5110907;28;20234;-61
2022/01/15 00:29:09;;;;;;;4.00;3.60;;;;;;;7.47;94.58;99446.06;5111157;28;20198;-62
2022/01/15 00:31:36;;;;;;;5.20;3.93;;;;;;;7.53;94.64;99462.34;5111013;28;20282;-63
2022/01/15 00:34:04;;;;;;;3.97;3.40;;;;;;;7.52;95.00;99473.53;5110845;28;20286;-62
2022/01/15 00:36:31;;;;;;;4.10;3.80;;;;;;;7.50;94.86;99479.59;5110750;28;20237;-62
2022/01/15 00:38:58;;;;;;;5.93;3.50;;;;;;;7.50;95.13;99480.47;5110878;28;20276;-62
2022/01/15 00:41:26;;;;;;;5.50;3.07;;;;;;;7.54;94.89;99491.59;5110490;28;20221;-62
2022/01/15 00:43:53;;;;;;;4.33;3.93;;;;;;;7.48;95.56;99502.00;5110891;28;20221;-61
2022/01/15 00:46:20;;;;;;;5.20;2.60;;;;;;;7.52;94.94;99504.53;5110979;28;20585;-55
2022/01/15 00:48:47;;;;;;;3.87;3.57;;;;;;;7.47;95.14;99511.50;5111149;28;20203;-55
2022/01/15 00:51:15;;;;;;;5.77;3.27;;;;;;;7.48;95.22;99513.19;5110627;28;20236;-55
2022/01/15 00:53:42;;;;;;;3.60;2.97;;;;;;;7.49;95.77;99506.31;5110460;28;20208;-55
2022/01/15 00:56:09;;;;;;;3.70;3.37;;;;;;;7.45;95.70;99517.59;5110412;28;20198;-55
2022/01/15 00:58:36;;;;;;;5.40;4.07;;;;;;;7.44;95.84;99505.53;5110538;28;20287;-55
2022/01/15 01:01:03;;;;;;;4.10;3.10;;;;;;;7.32;95.49;99485.09;5110527;28;20637;-55
2022/01/15 01:03:30;;;;;;;3.00;2.80;;;;;;;7.41;95.56;99503.84;5110559;28;20281;-55
2022/01/15 01:05:57;;;;;;;3.37;3.07;;;;;;;7.42;95.87;99507.28;5110454;28;20199;-55
2022/01/15 01:08:25;;;;;;;4.33;3.10;;;;;;;7.43;95.48;99506.41;5110486;28;20198;-62
2022/01/15 01:10:54;;;;;;;3.00;2.73;;;;;;;7.41;95.58;99503.00;5110579;28;20221;-62
2022/01/15 01:24:22;;;;;;;3.30;3.00;;;;;;;7.50;94.52;99520.91;5078747;28;20195;-62
2022/01/15 01:26:54;;;;;;;3.00;2.77;;;;;;;7.55;93.50;99529.47;5114125;28;20321;-61
2022/01/15 01:29:30;;;;;;;4.23;3.50;;;;;;;7.60;94.29;99532.81;5114276;28;20190;-61
2022/01/15 01:32:02;;;;;;;3.53;3.00;;;;;;;7.50;93.75;99514.03;5114121;28;20194;-62
2022/01/15 01:34:32;;;;;;;3.30;3.00;;;;;;;7.47;93.16;99510.63;5114177;28;20656;-54
2022/01/15 01:37:06;;;;;;;3.50;3.20;;;;;;;7.63;93.64;99533.63;5114101;28;20205;-61
2022/01/15 01:39:42;;;;;;;3.10;2.80;;;;;;;7.53;92.89;99528.63;5114094;28;20221;-62
2022/01/15 01:42:26;;;;;;;3.33;3.00;;;;;;;7.62;92.84;99543.97;5113945;28;20198;-61
2022/01/15 01:45:01;;;;;;;3.70;3.40;;;;;;;7.68;93.15;99543.84;5114120;28;20205;-61
2022/01/15 01:47:39;;;;;;;3.67;3.00;;;;;;;7.70;93.13;99544.69;5113922;28;20672;-62
2022/01/15 01:50:08;;;;;;;3.33;3.03;;;;;;;7.72;93.52;99534.34;5113777;28;20323;-61
2022/01/15 01:52:36;;;;;;;3.40;3.10;;;;;;;7.54;93.75;99528.59;5113704;28;20205;-61
2022/01/15 01:55:05;;;;;;;3.27;2.97;;;;;;;7.57;94.81;99541.44;5113682;28;20205;-62
2022/01/15 01:57:33;;;;;;;3.10;2.90;;;;;;;7.46;94.40;99530.44;5113666;28;20222;-62
2022/01/15 02:00:00;;;;;;;2.97;2.67;;;;;;;7.48;94.64;99533.00;5113706;28;20668;-63
2022/01/15 02:02:27;;;;;;;2.83;2.63;;;;;;;7.57;94.13;99554.38;5113710;28;20195;-61
2022/01/15 02:04:58;;;;;;;3.10;2.80;;;;;;;7.51;95.24;99540.72;5113625;28;20202;-55
2022/01/15 02:07:26;;;;;;;3.33;3.03;;;;;;;7.50;94.27;99541.59;5113895;28;20199;-54
2022/01/15 02:09:54;;;;;;;3.80;3.33;;;;;;;7.35;95.75;99539.22;5113520;28;20202;-55
2022/01/15 02:12:23;;;;;;;3.50;3.03;;;;;;;7.30;95.92;99529.00;5113422;28;20228;-55
2022/01/15 02:14:50;;;;;;;4.00;3.40;;;;;;;7.38;95.35;99534.88;5113380;28;20293;-55
2022/01/15 02:17:19;;;;;;;3.43;3.13;;;;;;;7.33;95.84;99553.91;5113213;28;20197;-54
2022/01/15 02:20:08;;;;;;;4.37;3.27;;;;;;;7.35;95.70;99542.66;5113547;28;20664;-55
2022/01/15 02:25:19;;;;;;;3.60;3.30;;;;;;;7.40;95.80;99540.03;5113270;28;20239;-54
2022/01/15 02:27:46;;;;;;;4.33;3.80;;;;;;;7.35;95.96;99545.25;5096135;28;20301;-55
2022/01/15 02:30:14;;;;;;;3.70;3.40;;;;;;;7.37;96.54;99537.47;5092834;28;20195;-55
2022/01/15 02:32:41;;;;;;;4.33;3.30;;;;;;;7.33;97.07;99553.91;5092917;28;20223;-55
2022/01/15 02:35:14;;;;;;;3.70;3.37;;;;;;;7.28;96.53;99570.31;5091468;28;20202;-55
2022/01/15 02:37:41;;;;;;;5.43;3.50;;;;;;;7.28;96.25;99567.75;5092537;28;20203;-55
2022/01/15 02:40:12;;;;;;;3.83;3.53;;;;;;;7.26;97.06;99569.47;5092356;28;20286;-56
2022/01/15 02:42:39;;;;;;;3.93;3.60;;;;;;;7.19;97.98;99567.88;5092486;28;20192;-55
2022/01/15 02:45:08;;;;;;;3.93;3.60;;;;;;;7.17;98.03;99572.19;5092357;28;20253;-61
2022/01/15 02:50:21;;;;;;;4.67;3.90;;;;;;;7.09;99.30;99584.38;5092363;28;20198;-62
2022/01/15 02:52:48;;;;;;;4.23;3.83;;;;;;;6.82;100.00;99543.44;5092306;28;20290;-55
2022/01/15 02:55:15;;;;;;;4.83;3.70;;;;;;;6.98;100.00;99575.91;5092421;28;20191;-55
2022/01/15 02:57:42;;;;;;;4.10;3.77;;;;;;;7.02;100.00;99584.44;5092210;28;20199;-54
2022/01/15 03:00:10;;;;;;;4.93;4.00;;;;;;;7.04;100.00;99575.81;5091976;28;20309;-55
2022/01/15 03:02:37;;;;;;;4.00;3.60;;;;;;;7.04;100.00;99580.97;5092012;28;20201;-55
2022/01/15 03:05:06;;;;;;;3.87;3.57;;;;;;;6.99;100.00;99577.63;5092350;28;20210;-55
2022/01/15 03:07:34;;;;;;;3.83;3.53;;;;;;;6.89;100.00;99576.88;5092213;28;20646;-62
2022/01/15 03:10:01;;;;;;;7.30;4.30;;;;;;;6.92;100.00;99570.81;5092146;28;20202;-61
2022/01/15 03:12:28;;;;;;;4.37;4.07;;;;;;;6.91;100.00;99575.13;5091847;28;20195;-63
2022/01/15 03:14:55;;;;;;;4.53;3.70;;;;;;;6.86;100.00;99578.66;5091902;28;20721;-62
2022/01/15 03:17:23;;;;;;;4.27;3.90;;;;;;;6.90;100.00;99576.00;5091826;28;20589;-55
2022/01/15 03:19:49;;;;;;;4.60;4.03;;;;;;;6.93;100.00;99573.38;5091806;28;20720;-54
2022/01/15 03:22:16;;;;;;;4.40;4.07;;;;;;;6.89;100.00;99563.97;5091504;28;20313;-55
2022/01/15 03:24:45;;;;;;;4.20;3.87;;;;;;;6.90;100.00;99583.75;5091774;28;20582;-55
2022/01/15 03:27:12;;;;;;;4.10;3.70;;;;;;;6.87;100.00;99588.97;5103658;28;20265;-55
2022/01/15 03:29:39;;;;;;;4.37;3.80;;;;;;;6.84;100.00;99593.28;5111887;28;20198;-62
2022/01/15 03:32:07;;;;;;;3.97;3.67;;;;;;;6.84;100.00;99598.47;5111940;28;20187;-54
2022/01/15 03:34:33;;;;;;;5.50;3.90;;;;;;;6.91;100.00;99600.06;5112080;28;20653;-55
2022/01/15 03:37:01;;;;;;;4.30;3.90;;;;;;;6.93;100.00;99604.34;5112169;28;20534;-55
2022/01/15 03:39:28;;;;;;;4.37;3.97;;;;;;;6.82;100.00;99564.06;5111860;28;20285;-61
2022/01/15 03:41:56;;;;;;;4.00;3.67;;;;;;;6.92;100.00;99600.06;5111628;28;20313;-62
2022/01/15 03:44:23;;;;;;;4.93;4.53;;;;;;;6.98;100.00;99599.13;5111596;28;20230;-62
2022/01/15 03:46:50;;;;;;;4.50;4.10;;;;;;;6.87;100.00;99595.84;5111344;28;20206;-54
2022/01/15 03:49:17;;;;;;;5.20;4.70;;;;;;;6.93;100.00;99596.59;5111858;28;20200;-55
2022/01/15 03:51:44;;;;;;;4.83;4.43;;;;;;;7.03;100.00;99596.47;5111630;28;20191;-54
2022/01/15 03:54:11;;;;;;;5.20;4.63;;;;;;;7.09;100.00;99612.75;5111523;28;20198;-61
2022/01/15 03:56:38;;;;;;;5.03;4.50;;;;;;;7.15;100.00;99622.13;5111393;28;20208;-55
2022/01/15 03:59:06;;;;;;;6.37;4.60;;;;;;;7.21;100.00;99627.22;5111597;28;20672;-62
2022/01/15 04:01:33;;;;;;;4.73;4.33;;;;;;;7.28;100.00;99624.53;5111275;28;20353;-62
2022/01/15 04:04:00;;;;;;;4.90;4.43;;;;;;;7.40;100.00;99635.56;5111372;28;20231;-61
2022/01/15 04:06:27;;;;;;;5.87;4.90;;;;;;;7.39;100.00;99632.13;5111191;28;20209;-55
2022/01/15 04:08:54;;;;;;;5.97;5.37;;;;;;;7.40;100.00;99632.97;5111301;28;20277;-55
2022/01/15 04:11:21;;;;;;;6.10;4.97;;;;;;;7.44;100.00;99632.94;5111366;28;20186;-53
2022/01/15 04:13:48;;;;;;;5.13;4.63;;;;;;;7.36;100.00;99634.75;5111061;28;20205;-54
2022/01/15 04:16:17;;;;;;;7.57;5.37;;;;;;;7.45;100.00;99636.38;5111088;28;20195;-55
2022/01/15 04:18:43;;;;;;;5.30;4.80;;;;;;;7.52;100.00;99654.31;5110955;28;20199;-55
2022/01/15 04:21:10;;;;;;;5.20;4.70;;;;;;;7.57;100.00;99656.81;5111020;28;20233;-62
2022/01/15 04:23:37;;;;;;;5.53;5.03;;;;;;;7.55;99.88;99661.19;5111122;28;20198;-62
2022/01/15 04:26:05;;;;;;;5.90;5.03;;;;;;;7.54;100.00;99672.38;5111052;28;20217;-55
2022/01/15 04:28:34;;;;;;;5.90;5.30;;;;;;;7.45;100.00;99664.78;5110842;28;20586;-55
2022/01/15 04:31:05;;;;;;;5.13;4.73;;;;;;;7.37;99.73;99633.03;5110837;28;20198;-55
2022/01/15 04:33:35;;;;;;;5.43;4.47;;;;;;;7.68;100.00;99698.84;5110954;28;20195;-55
2022/01/15 04:36:02;;;;;;;7.60;5.33;;;;;;;7.75;98.57;99692.75;5110805;28;20199;-53
2022/01/15 04:38:32;;;;;;;5.60;5.10;;;;;;;7.68;99.28;99691.09;5110896;28;20698;-54
2022/01/15 04:40:59;;;;;;;5.47;4.97;;;;;;;7.66;98.99;99695.47;5110545;28;20199;-55
2022/01/15 04:43:26;;;;;;;5.57;5.07;;;;;;;7.63;99.48;99703.25;5110974;28;20241;-54
2022/01/15 04:45:53;;;;;;;5.77;5.27;;;;;;;7.69;98.90;99712.63;5110717;28;20199;-62
2022/01/15 04:48:20;;;;;;;6.63;5.37;;;;;;;7.57;99.06;99718.81;5110545;28;20201;-54
2022/01/15 04:50:48;;;;;;;6.23;5.53;;;;;;;7.57;99.79;99729.16;5110775;28;20216;-55
2022/01/15 04:53:15;;;;;;;5.70;5.20;;;;;;;7.57;99.53;99724.84;5110538;28;20191;-55
2022/01/15 04:55:42;;;;;;;6.33;5.73;;;;;;;7.65;98.07;99741.13;5110410;28;20217;-55
2022/01/15 04:58:10;;;;;;;12.77;6.00;;;;;;;7.56;99.23;99748.13;5111118;28;20201;-55
2022/01/15 05:00:37;;;;;;;7.87;6.00;;;;;;;7.52;99.50;99746.44;5114889;28;20194;-55
2022/01/15 05:03:05;;;;;;;6.73;6.13;;;;;;;7.39;99.49;99734.56;5114604;28;20222;-55
2022/01/15 05:05:32;;;;;;;5.90;5.30;;;;;;;7.62;100.00;99773.88;5114706;28;20289;-55
2022/01/15 05:08:02;;;;;;;6.57;5.67;;;;;;;7.49;99.13;99751.66;5114558;28;20208;-54
2022/01/15 05:10:29;;;;;;;6.47;5.53;;;;;;;7.69;99.11;99780.66;5114607;28;20202;-55
2022/01/15 05:12:58;;;;;;;6.37;5.73;;;;;;;7.67;99.24;99779.84;5114726;28;20587;-54
2022/01/15 05:15:25;;;;;;;6.27;5.67;;;;;;;7.57;98.90;99753.25;5114436;28;20229;-54
2022/01/15 05:17:52;;;;;;;7.90;6.57;;;;;;;7.70;99.17;99784.94;5114609;28;20565;-55
2022/01/15 05:20:21;;;;;;;8.87;6.47;;;;;;;7.55;100.00;99783.44;5114465;28;20592;-54
2022/01/15 05:22:49;;;;;;;7.20;6.50;;;;;;;7.62;99.20;99785.06;5114387;28;20222;-54
2022/01/15 05:25:18;;;;;;;8.30;6.70;;;;;;;7.58;100.00;99788.53;5114465;28;20205;-54
2022/01/15 05:27:47;;;;;;;6.77;6.17;;;;;;;7.47;100.00;99785.25;5114072;28;20269;-55
2022/01/15 05:30:15;;;;;;;9.43;7.20;;;;;;;7.61;100.00;99790.25;5114393;28;20194;-55
2022/01/15 05:32:42;;;;;;;8.10;6.80;;;;;;;7.62;99.91;99797.13;5114276;28;20201;-54
2022/01/15 05:35:10;;;;;;;8.50;7.20;;;;;;;7.52;100.00;99798.09;5114015;28;20718;-61
2022/01/15 05:37:37;;;;;;;9.80;7.30;;;;;;;7.49;100.00;99817.06;5114320;28;20664;-62
2022/01/15 05:40:06;;;;;;;10.73;7.33;;;;;;;7.41;100.00;99820.63;5113993;28;20199;-62
2022/01/15 05:42:34;;;;;;;12.67;8.33;;;;;;;7.46;100.00;99821.41;5113867;28;20703;-62
2022/01/15 05:45:01;;;;;;;9.83;7.73;;;;;;;7.50;100.00;99830.84;5113947;28;20203;-62
2022/01/15 05:47:28;;;;;;;17.10;9.93;;;;;;;7.27;100.00;99837.09;5114056;28;20201;-63
2022/01/15 05:49:55;;;;;;;13.23;9.37;;;;;;;7.22;100.00;99825.97;5113794;28;20198;-63
2022/01/15 05:52:22;;;;;;;13.60;9.13;;;;;;;7.32;100.00;99833.63;5113869;28;20206;-62
2022/01/15 05:54:49;;;;;;;11.70;8.33;;;;;;;7.40;100.00;99834.41;5114032;28;20195;-63
2022/01/15 05:57:16;;;;;;;9.70;7.60;;;;;;;7.36;100.00;99845.63;5113767;28;20194;-63
2022/01/15 05:59:45;;;;;;;11.43;7.80;;;;;;;7.27;100.00;99839.69;5113862;28;20257;-62
2022/01/15 06:02:12;;;;;;;11.67;8.53;;;;;;;7.21;100.00;99841.50;5113758;28;21069;-62
2022/01/15 06:04:39;;;;;;;10.40;7.70;;;;;;;7.32;100.00;99846.53;5113620;28;20198;-62
2022/01/15 06:07:05;;;;;;;11.53;7.90;;;;;;;7.22;100.00;99838.88;5113555;28;20204;-63
2022/01/15 06:09:32;;;;;;;9.07;7.33;;;;;;;7.29;100.00;99866.34;5113588;28;20706;-62
2022/01/15 06:12:01;;;;;;;11.47;8.30;;;;;;;7.36;100.00;99863.69;5113445;28;20226;-62
2022/01/15 06:14:29;;;;;;;12.60;9.07;;;;;;;7.26;100.00;99878.44;5113052;28;20201;-62
2022/01/15 06:16:58;;;;;;;13.23;8.33;;;;;;;7.28;100.00;99880.13;5095221;28;20206;-62
2022/01/15 06:19:25;;;;;;;12.93;8.30;;;;;;;7.28;100.00;99882.72;5105222;28;20277;-62
2022/01/15 06:21:52;;;;;;;12.77;8.90;;;;;;;7.35;100.00;99887.81;5103280;28;20214;-62
2022/01/15 06:24:19;;;;;;;12.90;9.43;;;;;;;7.32;100.00;99887.84;5092639;28;20290;-61
2022/01/15 06:26:46;;;;;;;13.67;9.93;;;;;;;7.48;99.98;99900.59;5092613;28;20748;-61
2022/01/15 06:29:13;;;;;;;12.87;9.73;;;;;;;7.43;100.00;99902.38;5092052;28;20383;-61
2022/01/15 06:31:40;;;;;;;15.37;8.63;;;;;;;7.41;100.00;99909.28;5091783;28;20221;-62
2022/01/15 06:34:08;;;;;;;14.13;8.70;;;;;;;7.52;99.76;99912.63;5092266;28;20219;-54
2022/01/15 06:36:35;;;;;;;15.07;9.13;;;;;;;7.54;99.75;99910.00;5091306;28;20215;-54
2022/01/15 06:39:02;;;;;;;9.20;7.90;;;;;;;7.52;98.74;99914.34;5091803;28;20779;-54
2022/01/15 06:41:29;;;;;;;10.23;8.03;;;;;;;7.57;99.06;99915.13;5097473;27;20292;-55
2022/01/15 06:43:55;;;;;;;13.27;8.83;;;;;;;7.58;98.74;99922.00;5111661;28;20301;-55
2022/01/15 06:46:22;;;;;;;11.17;8.73;;;;;;;7.66;98.55;99920.22;5111880;28;20218;-55
2022/01/15 06:48:49;;;;;;;10.90;8.40;;;;;;;7.79;97.52;99916.59;5112659;28;20707;-54
2022/01/15 06:51:18;;;;;;;11.17;8.27;;;;;;;7.75;97.36;99925.28;5123453;27;20798;-53
2022/01/15 06:53:45;;;;;;;16.57;10.00;;;;;;;7.70;98.75;99934.81;5121015;27;20227;-55
2022/01/15 06:56:11;;;;;;;12.83;9.37;;;;;;;7.69;100.00;99930.50;5111405;28;20228;-55
2022/01/15 06:58:39;;;;;;;14.83;10.10;;;;;;;7.75;98.81;99950.28;5111754;28;20226;-56
2022/01/15 07:01:06;;;;;;;14.07;9.43;;;;;;;7.79;98.84;99957.94;5111891;28;20219;-55
2022/01/15 07:03:33;;;;;;;10.80;8.43;;;;;;;7.88;98.18;99952.72;5110938;28;20231;-54
2022/01/15 07:06:00;;;;;;;15.43;9.23;;;;;;;7.93;98.57;99956.09;5113704;27;20210;-55
2022/01/15 07:08:28;;;;;;;12.67;8.67;;;;;;;7.94;98.21;99962.13;5111358;28;20214;-56
2022/01/15 07:10:55;;;;;;;12.77;9.53;;;;;;;7.84;97.82;99947.59;5111481;28;20237;-54
2022/01/15 07:13:22;;;;;;;16.20;9.80;;;;;;;8.03;98.00;99974.94;5111853;28;20240;-61
2022/01/15 07:15:49;;;;;;;17.47;10.07;;;;;;;8.05;97.10;99975.78;5111775;28;20215;-63
2022/01/15 07:18:17;;;;;;;19.93;10.23;;;;;;;7.94;96.94;99952.63;5111821;28;20222;-62
2022/01/15 07:20:44;;;;;;;13.10;10.60;;;;;;;8.09;97.30;99982.63;5111197;28;20583;-62
2022/01/15 07:23:11;;;;;;;16.57;12.73;;;;;;;8.05;97.29;99987.84;5104497;28;20277;-62
2022/01/15 07:25:40;;;;;;;25.20;16.17;;;;;;;8.01;97.66;99989.63;5101864;27;20234;-62
2022/01/15 07:28:07;;;;;;;31.40;19.73;;;;;;;7.97;96.96;99964.66;5115741;27;20230;-62
2022/01/15 07:30:35;;;;;;;26.77;18.03;;;;;;;7.86;97.34;99964.78;5108271;28;20214;-63
2022/01/15 07:33:01;;;;;;;17.17;11.83;;;;;;;7.93;97.20;100001.75;5108818;28;20219;-61
2022/01/15 07:35:29;;;;;;;21.47;12.17;;;;;;;7.94;98.00;100004.31;5106751;28;20210;-62
2022/01/15 07:37:56;;;;;;;14.17;10.00;;;;;;;7.95;97.51;100016.38;5107831;28;20220;-62
2022/01/15 07:40:24;;;;;;;17.50;10.93;;;;;;;7.94;97.82;100024.16;5105116;28;20302;-62
2022/01/15 07:42:52;;;;;;;12.40;9.07;;;;;;;7.95;97.14;100024.13;5097628;28;20219;-63
2022/01/15 07:45:19;;;;;;;14.27;9.83;;;;;;;7.99;96.98;100031.00;5103284;28;20218;-61
2022/01/15 07:47:46;;;;;;;13.87;9.90;;;;;;;7.90;96.58;100032.81;5105571;28;20226;-62
2022/01/15 07:50:23;;;;;;;16.30;9.27;;;;;;;7.96;97.30;100033.59;5099044;28;20221;-61
2022/01/15 07:52:51;;;;;;;12.77;9.57;;;;;;;7.95;97.14;100031.88;5100869;28;20217;-63
2022/01/15 07:55:18;;;;;;;16.37;9.87;;;;;;;7.89;97.31;100031.09;5100211;28;20215;-56
2022/01/15 07:57:45;;;;;;;12.47;9.60;;;;;;;7.86;98.37;100042.31;5098005;28;20211;-55
2022/01/15 08:00:15;;;;;;;13.43;10.37;;;;;;;7.80;98.18;100039.78;5098897;28;20544;-54
2022/01/15 08:02:43;;;;;;;15.80;10.57;;;;;;;7.86;98.76;100038.88;5103691;28;20214;-54
2022/01/15 08:05:11;;;;;;;17.63;11.50;;;;;;;7.90;100.00;100043.16;5099525;28;20215;-61
2022/01/15 08:07:40;;;;;;;20.93;12.00;;;;;;;7.90;100.00;100061.25;5099716;28;20229;-61
2022/01/15 08:10:08;;;;;;;15.53;11.13;;;;;;;7.83;99.90;100063.00;5099408;28;20302;-63
2022/01/15 08:12:35;;;;;;;19.37;10.37;;;;;;;7.87;99.71;100069.03;5105859;27;20210;-59
2022/01/15 08:15:02;;;;;;;95.67;17.50;;;;;;;7.76;99.52;100068.25;5111074;27;20223;-60
2022/01/15 08:17:30;;;;;;;144.23;28.73;;;;;;;7.85;99.63;100084.53;5117322;27;20221;-60
2022/01/15 08:19:57;;;;;;;100.17;23.10;;;;;;;7.88;99.06;100091.41;5114069;27;20224;-60
2022/01/15 08:22:24;;;;;;;121.23;23.53;;;;;;;7.81;99.34;100057.00;5106438;27;20222;-58
2022/01/15 08:24:51;;;;;;;150.60;21.67;;;;;;;8.03;98.91;100086.94;5115305;27;20715;-60
2022/01/15 08:27:18;;;;;;;293.67;29.47;;;;;;;8.11;98.57;100086.03;5096233;28;20230;-60
2022/01/15 08:29:45;;;;;;;44.23;17.57;;;;;;;8.18;98.81;100085.09;5090611;28;20199;-61
2022/01/15 08:32:12;;;;;;;75.53;19.10;;;;;;;8.19;98.47;100082.50;5090543;28;20651;-55
2022/01/15 08:34:40;;;;;;;116.97;21.60;;;;;;;8.22;98.65;100087.66;5105692;28;20201;-55
2022/01/15 08:37:07;;;;;;;56.67;14.80;;;;;;;8.23;99.07;100098.84;5098918;28;20188;-55
2022/01/15 08:39:35;;;;;;;47.50;13.27;;;;;;;8.29;98.29;100103.94;5092017;28;20199;-54
2022/01/15 08:42:03;;;;;;;33.10;12.93;;;;;;;8.38;98.11;100106.47;5088386;28;20198;-60
2022/01/15 08:44:29;;;;;;;39.80;14.87;;;;;;;8.35;97.73;100107.34;5084082;28;20199;-61
2022/01/15 08:46:56;;;;;;;55.10;16.63;;;;;;;8.29;97.91;100109.97;5082844;28;20219;-61
2022/01/15 08:49:23;;;;;;;57.60;20.30;;;;;;;8.31;99.35;100110.84;5077118;28;20288;-61
2022/01/15 08:51:52;;;;;;;62.70;24.47;;;;;;;8.37;98.10;100112.50;5083498;28;20593;-62
2022/01/15 08:54:19;;;;;;;50.57;23.47;;;;;;;8.43;98.10;100115.03;5084827;28;20555;-61
2022/01/15 08:56:46;;;;;;;45.53;22.00;;;;;;;8.48;97.81;100115.84;5078023;28;20227;-61
2022/01/15 08:59:13;;;;;;;30.23;19.13;;;;;;;8.54;97.56;100108.03;5067735;28;20223;-62
2022/01/15 09:01:40;;;;;;;38.00;18.80;;;;;;;8.62;97.82;100103.59;5068259;28;20230;-55
2022/01/15 09:04:07;;;;;;;28.10;16.57;;;;;;;8.65;97.64;100103.59;5068489;28;20250;-55
2022/01/15 09:06:34;;;;;;;23.60;16.17;;;;;;;8.78;96.82;100108.63;5067980;28;20220;-55
2022/01/15 09:09:02;;;;;;;26.13;16.00;;;;;;;8.89;96.42;100104.16;5068381;28;20223;-54
2022/01/15 09:11:29;;;;;;;26.77;14.67;;;;;;;8.97;96.64;100110.09;5068011;28;20273;-54
2022/01/15 09:13:56;;;;;;;21.70;13.93;;;;;;;9.17;96.60;100102.91;5077137;28;20428;-55
2022/01/15 09:16:23;;;;;;;20.20;14.10;;;;;;;9.31;95.40;100106.19;5089466;28;20791;-54
2022/01/15 09:18:51;;;;;;;20.17;12.80;;;;;;;9.54;93.69;100103.25;5089671;28;20219;-54
2022/01/15 09:21:18;;;;;;;18.70;13.73;;;;;;;9.68;93.81;100103.91;5089427;28;20215;-54
2022/01/15 09:23:46;;;;;;;21.27;13.53;;;;;;;9.77;92.89;100114.13;5089090;28;20227;-55
2022/01/15 09:26:21;;;;;;;20.43;13.57;;;;;;;9.87;93.37;100107.03;5092222;28;20711;-55
2022/01/15 09:31:33;;;;;;;24.37;14.03;;;;;;;10.01;92.95;100120.63;5116333;28;20320;-54
2022/01/15 09:34:11;;;;;;;22.40;13.83;;;;;;;9.98;92.89;100115.50;5128988;28;20198;-54
2022/01/15 09:36:38;;;;;;;18.83;14.10;;;;;;;9.96;93.52;100106.88;5108629;28;20689;-60
2022/01/15 09:39:05;;;;;;;21.20;13.93;;;;;;;9.82;93.57;100114.88;5109232;28;20744;-61
2022/01/15 09:41:37;;;;;;;28.13;13.73;;;;;;;9.68;92.79;100070.19;5109167;28;20223;-60
2022/01/15 09:44:05;;;;;;;23.20;14.23;;;;;;;9.84;93.04;100101.91;5109781;28;20306;-60
2022/01/15 09:46:33;;;;;;;21.47;13.87;;;;;;;9.91;92.45;100100.94;5113288;28;20216;-60
2022/01/15 09:49:02;;;;;;;21.00;14.10;;;;;;;9.87;93.09;100091.47;5113753;28;20222;-60
2022/01/15 09:51:31;;;;;;;19.13;13.33;;;;;;;9.96;93.18;100095.66;5112936;28;20215;-60
2022/01/15 09:53:58;;;;;;;26.23;14.70;;;;;;;9.95;93.41;100089.59;5112772;28;20218;-60
2022/01/15 09:56:24;;;;;;;22.53;14.97;;;;;;;10.06;93.25;100090.28;5112398;28;20230;-55
2022/01/15 09:58:54;;;;;;;19.70;13.53;;;;;;;10.04;92.69;100089.47;5113335;28;20292;-54
2022/01/15 10:01:21;;;;;;;24.70;13.87;;;;;;;10.14;92.65;100091.00;5112706;28;20226;-54
2022/01/15 10:03:48;;;;;;;19.43;12.60;;;;;;;9.93;92.61;100086.19;5112782;28;20236;-55
2022/01/15 10:06:15;;;;;;;26.10;14.20;;;;;;;10.03;92.72;100079.13;5112680;28;20250;-54
2022/01/15 10:08:58;;;;;;;21.07;13.63;;;;;;;10.02;93.23;100087.78;5112613;28;20301;-58
2022/01/15 10:11:44;;;;;;;22.13;13.47;;;;;;;10.06;93.40;100072.13;5112355;28;20232;-54
2022/01/15 10:14:26;;;;;;;24.23;15.13;;;;;;;10.16;92.86;100084.03;5106581;28;20722;-55
2022/01/15 10:16:53;;;;;;;17.90;13.17;;;;;;;10.33;93.39;100080.31;5112953;28;20214;-56
2022/01/15 10:19:28;;;;;;;26.23;14.03;;;;;;;10.43;91.19;100074.06;5112934;28;20664;-54
2022/01/15 10:22:09;;;;;;;25.50;13.60;;;;;;;10.49;91.86;100069.63;5112842;28;20218;-58
2022/01/15 10:24:37;;;;;;;28.10;15.03;;;;;;;10.44;90.11;100068.84;5111791;28;20315;-55
2022/01/15 10:27:26;;;;;;;31.70;15.67;;;;;;;10.54;90.68;100053.94;5112453;28;20309;-53
2022/01/15 10:30:07;;;;;;;21.90;13.67;;;;;;;10.43;89.10;100051.56;5102367;28;20237;-53
2022/01/15 10:32:36;;;;;;;21.27;13.03;;;;;;;10.35;89.21;100060.41;5084585;28;20222;-54
2022/01/15 10:35:11;;;;;;;18.30;12.53;;;;;;;10.13;91.33;100058.19;5091657;28;20665;-55
2022/01/15 10:37:50;;;;;;;17.17;12.40;;;;;;;10.16;91.57;100057.25;5105310;28;20232;-54
2022/01/15 10:40:17;;;;;;;17.90;12.13;;;;;;;10.13;91.30;100055.59;5113054;28;20224;-54
2022/01/15 10:42:53;;;;;;;14.97;11.63;;;;;;;10.13;90.66;100057.31;5112849;28;20203;-54
2022/01/15 10:45:23;;;;;;;15.83;11.40;;;;;;;10.17;90.76;100053.75;5112912;28;20563;-54
2022/01/15 10:47:53;;;;;;;20.83;12.97;;;;;;;10.18;90.70;100045.13;5112541;28;20586;-55
2022/01/15 10:50:22;;;;;;;17.43;12.90;;;;;;;10.26;90.54;100050.19;5112962;28;20198;-54
2022/01/15 10:52:50;;;;;;;24.03;12.23;;;;;;;10.35;90.65;100034.44;5112713;28;20675;-55
2022/01/15 10:55:17;;;;;;;16.20;12.30;;;;;;;10.37;89.17;100030.09;5112604;28;20209;-55
2022/01/15 10:57:46;;;;;;;22.47;13.10;;;;;;;10.29;89.34;100032.81;5111690;28;20197;-55
2022/01/15 11:00:17;;;;;;;19.67;13.03;;;;;;;10.45;89.90;100030.78;5112449;28;20670;-55
2022/01/15 11:02:47;;;;;;;19.70;13.37;;;;;;;10.57;88.97;100020.16;5112365;28;20287;-54
2022/01/15 11:05:38;;;;;;;23.37;13.47;;;;;;;10.75;87.86;100031.88;5112511;28;20201;-54
2022/01/15 11:08:17;;;;;;;18.37;12.20;;;;;;;10.87;87.22;100027.28;5081361;28;20202;-55
2022/01/15 11:10:47;;;;;;;16.83;11.70;;;;;;;11.05;85.56;100025.19;5112193;28;20198;-55
2022/01/15 11:13:15;;;;;;;14.13;10.07;;;;;;;11.08;84.21;100030.28;5112594;28;20201;-54
2022/01/15 11:15:45;;;;;;;17.40;11.60;;;;;;;10.99;84.60;100020.97;5112213;28;20204;-59
2022/01/15 11:18:18;;;;;;;13.93;11.20;;;;;;;10.93;85.15;100025.44;5112370;28;20733;-61
2022/01/15 11:20:48;;;;;;;15.97;11.83;;;;;;;10.86;85.95;100020.38;5112140;28;20254;-61
2022/01/15 11:23:16;;;;;;;12.53;11.10;;;;;;;10.87;85.94;100035.06;5112016;28;20233;-55
2022/01/15 11:25:45;;;;;;;17.87;13.03;;;;;;;10.98;85.60;100023.59;5112181;28;20199;-55
2022/01/15 11:28:14;;;;;;;25.03;13.27;;;;;;;11.03;84.52;100032.16;5112013;28;20195;-54
2022/01/15 11:30:43;;;;;;;15.53;11.67;;;;;;;10.70;84.15;100024.22;5111994;28;20198;-55
2022/01/15 11:33:11;;;;;;;17.53;12.10;;;;;;;10.66;84.76;100019.97;5112059;28;20286;-55
2022/01/15 11:35:41;;;;;;;13.67;10.87;;;;;;;10.58;85.69;100029.66;5111791;28;20321;-54
2022/01/15 11:38:09;;;;;;;15.40;10.97;;;;;;;10.64;85.65;100024.31;5111756;28;20241;-55
2022/01/15 11:40:39;;;;;;;16.77;11.13;;;;;;;10.57;84.65;100009.78;5111839;28;20672;-56
2022/01/15 11:43:40;;;;;;;16.27;9.60;;;;;;;10.72;83.42;100025.00;5111856;28;20234;-56
2022/01/15 11:46:27;;;;;;;10.97;8.50;;;;;;;10.72;82.41;100012.03;5111558;28;20635;-55
2022/01/15 11:49:30;;;;;;;18.57;9.23;;;;;;;10.68;82.50;100010.41;5111390;28;20198;-55
2022/01/15 11:52:29;;;;;;;11.47;8.10;;;;;;;10.76;82.40;100008.47;5111605;28;20590;-55
2022/01/15 11:55:20;;;;;;;11.73;8.37;;;;;;;10.74;81.58;100010.25;5111430;28;20200;-55